Time;durP1;ratioP1;P1;durP2;ratioP2;P2;SDS_P1;SDS_P2;PMS_P1;PMS_P2;Temp;Humidity;BMP_temperature;BMP_pressure;BME280_temperature;BME280_humidity;BME280_pressure;Samples;Min_cycle;Max_cycle;Signal;HPM_P1;HPM_P2
2021/10/12 00:06:50;;;;;;;8.57;3.40;;;16.60;60.00;;;;;;20804863;28;80016;-74
2021/10/12 00:16:52;;;;;;;8.60;4.57;;;16.50;60.30;;;;;;20804894;28;80573;-76
2021/10/12 00:26:54;;;;;;;7.03;3.92;;;16.40;60.50;;;;;;20804874;28;81986;-74
2021/10/12 00:36:56;;;;;;;6.60;3.63;;;16.40;60.80;;;;;;20802693;28;80528;-74
2021/10/12 00:46:58;;;;;;;6.20;3.40;;;16.20;60.80;;;;;;20801768;28;81954;-75
2021/10/12 00:57:00;;;;;;;6.13;3.10;;;16.20;61.10;;;;;;20801304;28;81005;-75
2021/10/12 01:07:02;;;;;;;6.13;2.97;;;16.00;61.40;;;;;;20802709;28;81920;-73
2021/10/12 01:17:06;;;;;;;8.23;3.38;;;15.90;61.60;;;;;;20801705;28;79857;-73
2021/10/12 01:27:09;;;;;;;6.83;3.17;;;15.80;62.00;;;;;;20801044;28;80257;-73
2021/10/12 01:37:11;;;;;;;7.28;3.30;;;15.70;61.80;;;;;;20802693;28;80890;-73
2021/10/12 01:47:13;;;;;;;6.22;3.67;;;15.60;62.10;;;;;;20813653;28;79932;-73
2021/10/12 01:57:17;;;;;;;5.85;3.00;;;15.50;62.30;;;;;;20813423;28;80704;-73
2021/10/12 02:07:19;;;;;;;8.63;3.88;;;15.40;62.70;;;;;;20813988;28;80870;-73
2021/10/12 02:17:21;;;;;;;8.63;3.80;;;15.40;63.00;;;;;;20811207;28;80776;-73
2021/10/12 02:27:27;;;;;;;11.15;3.30;;;15.30;63.20;;;;;;20811180;28;82202;-74
2021/10/12 02:37:29;;;;;;;7.20;3.83;;;15.30;63.30;;;;;;20811915;28;81039;-74
2021/10/12 02:47:34;;;;;;;4.97;2.97;;;15.00;63.60;;;;;;20804397;28;80789;-74
2021/10/12 02:57:36;;;;;;;7.18;3.20;;;15.00;63.80;;;;;;20802126;28;82354;-73
2021/10/12 03:07:40;;;;;;;4.23;2.80;;;14.90;63.90;;;;;;20805809;28;81255;-73
2021/10/12 03:17:43;;;;;;;5.93;3.10;;;14.90;64.00;;;;;;20798299;28;81838;-74
2021/10/12 03:27:47;;;;;;;5.22;2.70;;;14.80;64.10;;;;;;20802520;28;82225;-74
2021/10/12 03:37:49;;;;;;;5.43;3.13;;;14.80;64.20;;;;;;20803634;28;81145;-74
2021/10/12 03:47:52;;;;;;;;;;;14.70;64.50;;;;;;20808264;28;81636;-74
2021/10/12 03:57:54;;;;;;;5.45;3.22;;;14.60;64.50;;;;;;20826878;28;81118;-74
2021/10/12 04:07:56;;;;;;;5.88;2.97;;;14.60;64.60;;;;;;20806183;28;79979;-74
2021/10/12 04:17:59;;;;;;;4.90;3.20;;;14.50;64.70;;;;;;20805076;28;80908;-74
2021/10/12 04:28:04;;;;;;;5.43;3.13;;;14.50;64.70;;;;;;20823734;28;81098;-73
2021/10/12 04:38:06;;;;;;;6.07;3.63;;;14.40;64.90;;;;;;20804652;28;82017;-73
2021/10/12 04:48:14;;;;;;;4.85;3.30;;;14.40;64.90;;;;;;20803291;28;83151;-73
2021/10/12 04:58:17;;;;;;;4.53;3.00;;;14.40;64.90;;;;;;20802113;28;80576;-75
2021/10/12 05:08:19;;;;;;;8.77;3.40;;;14.40;64.90;;;;;;20803190;28;80765;-72
2021/10/12 05:18:22;;;;;;;26.15;4.20;;;14.20;65.20;;;;;;20801571;28;81167;-72
2021/10/12 05:28:23;;;;;;;;;;;14.20;65.30;;;;;;20824704;28;81062;-73
2021/10/12 05:38:25;;;;;;;6.90;3.40;;;14.00;65.20;;;;;;20872636;28;81850;-72
2021/10/12 05:48:26;;;;;;;8.20;3.33;;;13.90;65.80;;;;;;20871316;27;81255;-71
2021/10/12 06:08:45;;;;;;;4.75;3.22;;;13.70;66.00;;;;;;20869116;27;82104;-63
2021/10/12 06:18:47;;;;;;;6.83;3.47;;;13.70;66.40;;;;;;20870842;27;81714;-63
2021/10/12 06:28:49;;;;;;;9.15;3.30;;;13.70;66.30;;;;;;20879372;27;81762;-66
2021/10/12 06:38:51;;;;;;;6.57;3.70;;;13.50;66.60;;;;;;20880642;28;81997;-65
2021/10/12 06:48:52;;;;;;;8.73;3.60;;;13.50;66.90;;;;;;20881751;28;82254;-64
2021/10/12 06:58:54;;;;;;;6.25;3.65;;;13.60;66.60;;;;;;20881436;27;81356;-67
2021/10/12 07:08:56;;;;;;;5.50;3.38;;;13.80;66.30;;;;;;20877927;28;81693;-69
2021/10/12 07:18:58;;;;;;;7.97;3.97;;;13.90;66.00;;;;;;20876274;28;81125;-62
2021/10/12 07:29:00;;;;;;;8.30;4.72;;;14.10;65.50;;;;;;20871127;27;81935;-67
2021/10/12 07:39:04;;;;;;;6.47;4.38;;;14.40;64.80;;;;;;20873460;27;81633;-66
2021/10/12 07:49:05;;;;;;;7.47;4.15;;;14.70;63.80;;;;;;20878942;28;81758;-63
2021/10/12 07:59:09;;;;;;;8.93;4.80;;;15.00;62.80;;;;;;20878954;28;81957;-64
2021/10/12 08:09:11;;;;;;;;;;;15.40;61.80;;;;;;20878016;28;81520;-67
2021/10/12 08:19:13;;;;;;;8.18;4.13;;;15.90;61.10;;;;;;20900108;28;81497;-64
2021/10/12 08:29:16;;;;;;;9.18;4.95;;;16.40;59.30;;;;;;20877671;28;81088;-63
2021/10/12 08:39:19;;;;;;;18.00;5.20;;;16.80;58.60;;;;;;20873534;27;81661;-64
2021/10/12 08:49:21;;;;;;;12.23;6.00;;;17.20;57.60;;;;;;20874665;27;81286;-64
2021/10/12 08:59:23;;;;;;;9.77;5.47;;;17.80;57.10;;;;;;20875886;27;81383;-63
2021/10/12 09:09:35;;;;;;;9.35;5.55;;;18.30;56.70;;;;;;20875396;27;81785;-64
2021/10/12 09:19:36;;;;;;;6.90;4.65;;;18.80;56.40;;;;;;20875318;27;81732;-65
2021/10/12 09:29:48;;;;;;;8.20;4.45;;;19.40;55.20;;;;;;20875264;27;81914;-67
2021/10/12 09:39:50;;;;;;;6.77;4.60;;;20.20;53.10;;;;;;20878665;28;80838;-67
2021/10/12 09:50:09;;;;;;;6.27;4.50;;;23.20;46.60;;;;;;20881725;27;80688;-65
2021/10/12 10:00:13;;;;;;;7.45;4.65;;;25.50;42.20;;;;;;20865021;28;81892;-64
2021/10/12 10:10:15;;;;;;;8.48;4.15;;;27.60;37.60;;;;;;20812078;28;81533;-63
2021/10/12 10:20:18;;;;;;;5.60;4.20;;;29.10;34.50;;;;;;20808645;28;80622;-64
2021/10/12 10:30:23;;;;;;;6.63;4.20;;;31.30;31.70;;;;;;20845386;28;81958;-63
2021/10/12 10:40:35;;;;;;;6.82;3.78;;;34.30;27.70;;;;;;20893869;27;80127;-63
2021/10/12 10:50:36;;;;;;;4.68;3.28;;;36.50;25.70;;;;;;20886203;27;80953;-64
2021/10/12 11:00:52;;;;;;;7.95;3.55;;;39.10;22.90;;;;;;20889165;27;80760;-63
2021/10/12 11:10:55;;;;;;;6.55;3.58;;;40.70;21.50;;;;;;20885571;28;81822;-63
2021/10/12 11:21:02;;;;;;;4.32;2.58;;;37.50;24.50;;;;;;20895000;28;82093;-63
2021/10/12 11:31:07;;;;;;;5.22;2.78;;;34.00;28.40;;;;;;20894134;27;81899;-64
2021/10/12 11:41:25;;;;;;;5.15;3.00;;;35.60;26.40;;;;;;20893533;27;80635;-63
2021/10/12 11:51:33;;;;;;;6.55;2.60;;;38.50;23.30;;;;;;20892142;27;80819;-64
2021/10/12 12:01:44;;;;;;;4.35;3.08;;;37.50;23.80;;;;;;20891695;27;81875;-63
2021/10/12 12:11:46;;;;;;;3.47;2.73;;;33.00;28.40;;;;;;20891340;27;82223;-64
2021/10/12 12:21:49;;;;;;;6.07;3.08;;;32.40;29.60;;;;;;20890776;27;81871;-65
2021/10/12 12:31:54;;;;;;;5.72;2.80;;;33.50;27.50;;;;;;20889541;27;81683;-65
2021/10/12 12:41:55;;;;;;;5.68;3.40;;;33.20;28.30;;;;;;20888934;28;81855;-65
2021/10/12 12:51:58;;;;;;;4.63;3.10;;;34.30;26.10;;;;;;20889058;27;81876;-64
2021/10/12 13:02:00;;;;;;;5.45;3.08;;;36.30;24.00;;;;;;20889012;27;81832;-65
2021/10/12 13:12:02;;;;;;;4.53;3.30;;;35.50;25.20;;;;;;20888293;28;81961;-64
2021/10/12 13:22:04;;;;;;;8.57;2.95;;;37.40;23.50;;;;;;20885844;28;81719;-64
2021/10/12 13:32:07;;;;;;;3.97;3.33;;;33.00;27.80;;;;;;20887336;27;80776;-64
2021/10/12 13:42:11;;;;;;;8.85;4.47;;;31.50;29.50;;;;;;20900617;28;81851;-64
2021/10/12 13:52:14;;;;;;;5.13;3.55;;;30.50;30.70;;;;;;20900969;27;81966;-65
2021/10/12 14:02:15;;;;;;;5.65;3.50;;;33.50;26.70;;;;;;20899297;27;80610;-65
2021/10/12 14:12:18;;;;;;;4.97;3.42;;;35.60;24.30;;;;;;20899292;27;80726;-65
2021/10/12 14:22:19;;;;;;;5.57;3.22;;;35.20;24.90;;;;;;20898710;27;81896;-65
2021/10/12 14:32:21;;;;;;;6.03;3.00;;;33.30;27.30;;;;;;20889465;28;81826;-65
2021/10/12 14:42:22;;;;;;;4.55;2.92;;;32.40;27.50;;;;;;20881258;28;81469;-65
2021/10/12 14:52:24;;;;;;;6.10;3.03;;;31.80;27.90;;;;;;20891332;27;81799;-63
2021/10/12 15:02:25;;;;;;;5.65;3.28;;;32.40;27.80;;;;;;20884643;27;80759;-64
2021/10/12 15:12:28;;;;;;;4.93;2.88;;;32.20;27.60;;;;;;20890947;27;81631;-64
2021/10/12 15:22:30;;;;;;;7.45;2.80;;;33.40;26.30;;;;;;20888522;27;80549;-62
2021/10/12 15:32:32;;;;;;;6.72;2.70;;;32.40;26.80;;;;;;20821418;28;80096;-64
2021/10/12 15:42:34;;;;;;;4.25;2.67;;;31.30;28.80;;;;;;20816247;28;80067;-64
2021/10/12 15:52:36;;;;;;;7.80;2.90;;;34.00;25.50;;;;;;20808643;28;80704;-65
2021/10/12 16:02:39;;;;;;;6.55;3.35;;;31.90;27.80;;;;;;20809223;28;80779;-64
2021/10/12 16:12:41;;;;;;;6.25;3.33;;;28.80;31.00;;;;;;20832841;27;80911;-62
2021/10/12 16:22:43;;;;;;;6.70;2.90;;;27.30;33.30;;;;;;20803337;28;80355;-65
2021/10/12 16:32:45;;;;;;;6.22;3.08;;;26.50;34.70;;;;;;20811910;28;81863;-64
2021/10/12 16:42:50;;;;;;;7.40;3.05;;;25.90;35.60;;;;;;20871227;28;80926;-63
2021/10/12 16:52:51;;;;;;;9.85;2.78;;;25.30;36.30;;;;;;20878665;27;81857;-65
2021/10/12 17:02:54;;;;;;;4.22;2.92;;;24.90;37.40;;;;;;20873262;28;82346;-63
2021/10/12 17:12:58;;;;;;;7.82;3.50;;;24.40;38.80;;;;;;20873229;27;81755;-65
2021/10/12 17:22:59;;;;;;;8.30;4.13;;;24.10;39.10;;;;;;20879437;28;80800;-66
2021/10/12 17:33:07;;;;;;;6.88;3.78;;;23.70;39.80;;;;;;20881988;27;81972;-66
2021/10/12 17:43:12;;;;;;;9.40;4.55;;;23.30;41.20;;;;;;20876755;27;80571;-65
2021/10/12 17:53:22;;;;;;;7.07;4.43;;;22.90;42.10;;;;;;20878014;27;81803;-75
2021/10/12 18:03:27;;;;;;;9.13;4.72;;;22.60;43.20;;;;;;20816011;28;80487;-69
2021/10/12 18:13:29;;;;;;;11.15;5.45;;;22.30;43.90;;;;;;20862534;28;81821;-73
2021/10/12 18:23:31;;;;;;;17.13;10.45;;;22.00;44.40;;;;;;20860907;27;80843;-72
2021/10/12 18:33:34;;;;;;;13.43;5.63;;;21.70;45.10;;;;;;20801891;28;82757;-72
2021/10/12 18:43:46;;;;;;;13.57;6.78;;;21.50;45.80;;;;;;20810031;28;83890;-71
2021/10/12 18:53:50;;;;;;;9.20;5.97;;;21.30;46.30;;;;;;20811235;28;81315;-68
2021/10/12 19:03:53;;;;;;;17.25;6.65;;;21.10;46.80;;;;;;20804096;28;80975;-71
2021/10/12 19:13:55;;;;;;;;;;;20.90;47.40;;;;;;20806142;28;81716;-75
2021/10/12 19:24:00;;;;;;;12.82;6.65;;;20.80;47.70;;;;;;20841787;27;79511;-70
2021/10/12 19:34:01;;;;;;;17.67;7.90;;;20.60;48.20;;;;;;20806929;28;80856;-68
2021/10/12 19:44:02;;;;;;;19.02;9.43;;;20.40;49.60;;;;;;20819827;27;80508;-74
2021/10/12 19:54:10;;;;;;;13.85;8.32;;;20.40;50.50;;;;;;20841211;28;80039;-69
2021/10/12 20:04:11;;;;;;;16.33;6.75;;;20.20;51.20;;;;;;20841676;28;79972;-69
2021/10/12 20:14:12;;;;;;;15.50;6.80;;;20.10;51.20;;;;;;20814956;28;80273;-67
2021/10/12 20:24:13;;;;;;;12.73;6.70;;;20.00;52.00;;;;;;20890031;27;80402;-68
2021/10/12 20:34:14;;;;;;;13.23;7.03;;;19.90;52.60;;;;;;20873246;27;79982;-73
2021/10/12 20:44:17;;;;;;;10.80;6.05;;;19.70;53.00;;;;;;20817747;28;80841;-69
2021/10/12 20:54:19;;;;;;;15.38;7.38;;;19.50;53.50;;;;;;20842822;28;80763;-69
2021/10/12 21:04:22;;;;;;;19.08;8.70;;;19.40;54.10;;;;;;20803197;28;81840;-73
2021/10/12 21:14:25;;;;;;;8.77;5.28;;;19.20;54.60;;;;;;20801635;27;80992;-68
2021/10/12 21:24:27;;;;;;;8.98;5.05;;;19.20;54.60;;;;;;20824819;28;80968;-70
2021/10/12 21:34:29;;;;;;;10.70;5.37;;;19.10;54.60;;;;;;20831309;28;81986;-73
2021/10/12 21:44:31;;;;;;;8.65;4.65;;;19.20;54.60;;;;;;20840129;28;80922;-73
2021/10/12 21:54:35;;;;;;;9.33;4.03;;;19.00;55.10;;;;;;20851064;27;80028;-73
2021/10/12 22:04:37;;;;;;;7.47;3.17;;;18.80;54.20;;;;;;20815940;28;80709;-70
2021/10/12 22:14:38;;;;;;;6.53;2.67;;;18.60;50.50;;;;;;20860596;28;80500;-71
2021/10/12 22:24:40;;;;;;;2.87;1.70;;;18.60;46.90;;;;;;20822950;27;81473;-71
2021/10/12 22:34:41;;;;;;;3.10;1.77;;;18.60;43.30;;;;;;20813169;28;81725;-73
2021/10/12 22:44:43;;;;;;;5.07;1.47;;;18.60;40.60;;;;;;20811756;28;80825;-72
2021/10/12 22:54:45;;;;;;;2.27;1.37;;;18.50;39.30;;;;;;20874856;28;80690;-71
2021/10/12 23:04:47;;;;;;;3.97;1.20;;;18.50;37.90;;;;;;20845881;28;81065;-73
2021/10/12 23:14:49;;;;;;;;;;;18.40;36.50;;;;;;20811181;28;81832;-70
2021/10/12 23:24:51;;;;;;;2.95;1.10;;;18.30;35.10;;;;;;20831379;28;81058;-72
2021/10/12 23:34:55;;;;;;;5.80;1.20;;;18.20;34.60;;;;;;20809435;28;79931;-70
2021/10/12 23:44:56;;;;;;;3.03;1.20;;;18.20;33.80;;;;;;20808928;28;81004;-75
2021/10/12 23:55:00;;;;;;;3.08;1.10;;;18.10;33.40;;;;;;20807591;28;80954;-70
